Details From SUAA - ANGEL S ADAMI
To SABE - Aeroparque Jorge Newbery
Flight Number -
Tags generated
Created
Modified
Stats Distance 107 nm / 199 km
Max Altitude 9,700 ft / 2,957 m
Waypoints 4
Social Downloads 0
Likes 0
Share VATSIM

Download

Looking for another format? Having issues loading an existing format? Contact us
Advertisement - Login to hide

Notes

Basic altitude profile: - Ascent Rate: 2500ft/min - Ascent Speed: 250kts - Cruise Altitude: 35000ft - Cruise Speed: 420kts - Descent Rate: 1500ft/min - Descent Speed: 250kts Options: - Use NATs: yes - Use PACOTS: yes - Use low airways: yes - Use high airways: yes

Route

SUAA TIGRE A305 DORVO SABE

ID Type Via Altitude Latitude Longitude Leg Dist Tot Dist Heading (true) Name
O SUAA APT - 0 ft / 0 m -34.78910˚ -56.26470˚ - 0 nm - ANGEL S ADAMI
TIGRE FIX - 7,900 ft / 2,408 m -34.78139˚ -56.71556˚ 22 nm 22 nm 271° / 271° -
DORVO FIX A305 (AWY-LO) 9,700 ft / 2,957 m -34.71611˚ -57.51722˚ 39 nm 61 nm 275° / 276° -
O SABE APT - 0 ft / 0 m -34.55941˚ -58.41575˚ 45 nm 107 nm 282° / 282° Aeroparque Jorge Newbery

Altitude Profile

Advertisement - Login to hide

SUAA

Details ICAO SUAA
Name ANGEL S ADAMI
Region Uruguay
Timezone America/Montevideo (UTC-3.0)
Stats Elevation 174 ft / 53 m (AMSL)
Location -34.789096° -56.264702°
Runways 1
Magnetic Variation 10.654° W

METAR

SUAA 122200Z 10012KT CAVOK 24/14 Q1011

Decode

TAF

SUAA 121730Z 1218/1318 10010KT CAVOK TX34/1318Z TN14/1309Z BECMG 1223/1301 03015KT BECMG 1316/1318 10015KT

Decode

Departure Runways

ID Width Length Bearing (true) Bearing (mag) Surface Threshold Offset Overrun Length
18 75 ft / 23 m 4,194 ft / 1,278 m 176.77° 187.42° Concrete 0 ft / 0 m 0 ft / 0 m
36 75 ft / 23 m 4,194 ft / 1,278 m 356.77° 7.42° Concrete 0 ft / 0 m 0 ft / 0 m

SABE

Details ICAO SABE (AEP)
Name Aeroparque Jorge Newbery
Region Argentina
Timezone Unknown (UTC+0.0)
Stats Elevation 17 ft / 5 m (AMSL)
Location -34.559414° -58.415749°
Runways 1
Magnetic Variation 8.980° W

METAR

SABE 122300Z 11011KT CAVOK 25/16 Q1010

Decode

TAF

TAF SABE 121700Z 1218/1318 04010KT CAVOK TX32/1318Z TN21/1308Z BECMG 1219/1221 09010KT 9999 SCT035 BECMG 1303/1306 04010KT CAVOK

Decode

Destination Runways

ID Width Length Bearing (true) Bearing (mag) Surface Threshold Offset Overrun Length
13 131 ft / 40 m 6,882 ft / 2,098 m 123.87° 132.85° Concrete 0 ft / 0 m 791 ft / 241 m
31 131 ft / 40 m 6,882 ft / 2,098 m 303.86° 312.84° Concrete 991 ft / 302 m 0 ft / 0 m

Approach Navaids

Runway Type Ident Frequency Range Bearing (true) Bearing (mag) Slope Elevation
13 Localiser AE 109.50 MHz 18 nm / 33 km 123.95° 132.93° - 17 ft / 5 m (AMSL)
13 Glidescope AE 109.50 MHz 10 nm / 19 km 124.47° 133.45° 3.00° 17 ft / 5 m (AMSL)
13 DME AE 109.50 MHz 18 nm / 33 km - - - 17 ft / 5 m (AMSL)

Popular Alternatives